Time;durP1;ratioP1;P1;durP2;ratioP2;P2;SDS_P1;SDS_P2;PMS_P1;PMS_P2;Temp;Humidity;BMP_temperature;BMP_pressure;BME280_temperature;BME280_humidity;BME280_pressure;Samples;Min_cycle;Max_cycle;Signal;HPM_P1;HPM_P2
2021/05/04 18:08:45;;;;;;;3.72;1.40;;;;;;;-144.13;100.00;64086.75;5046140;22;20092;-76
2021/05/04 18:12:26;;;;;;;89.80;46.03;;;;;;;-144.13;100.00;64086.75;5028512;28;20056;-76
2021/05/04 18:23:15;;;;;;;42.90;21.27;;;;;;;-144.13;100.00;64086.75;5039823;28;20146;-76
2021/05/04 18:26:40;;;;;;;26.55;13.63;;;;;;;-144.13;100.00;64086.75;5026390;28;20052;-77
2021/05/04 18:30:04;;;;;;;4.53;2.55;;;;;;;-144.13;100.00;64086.75;5037803;28;20133;-75
2021/05/04 18:33:31;;;;;;;39.25;20.15;;;;;;;-144.13;100.00;64086.75;5039356;28;20036;-76
2021/05/04 18:41:03;;;;;;;91.65;47.40;;;;;;;-144.13;100.00;64086.75;5030263;28;20521;-75
2021/05/04 20:12:53;;;;;;;33.47;20.23;;;;;;;-144.13;100.00;64086.75;5031262;28;20632;-74
2021/05/04 20:16:18;;;;;;;47.88;24.40;;;;;;;-144.13;100.00;64086.75;5019973;28;20053;-74
2021/05/04 20:19:42;;;;;;;39.38;23.63;;;;;;;-144.13;100.00;64086.75;5041016;28;20020;-75
2021/05/04 20:23:07;;;;;;;1.95;1.45;;;;;;;-144.13;100.00;64086.75;5035089;28;20029;-73
2021/05/04 20:26:32;;;;;;;3.33;1.17;;;;;;;-144.13;100.00;64086.75;5042032;28;20104;-73
2021/05/04 20:29:56;;;;;;;21.58;11.05;;;;;;;-144.13;100.00;64086.75;5032794;28;20079;-74
2021/05/04 20:33:24;;;;;;;6.35;2.30;;;;;;;-144.13;100.00;64086.75;5049206;28;20036;-74
2021/05/04 20:36:48;;;;;;;20.60;11.02;;;;;;;-144.13;100.00;64086.75;5020465;28;20025;-75
2021/05/04 20:40:12;;;;;;;83.63;45.97;;;;;;;-144.13;100.00;64086.75;5032114;28;20029;-74
2021/05/04 20:43:37;;;;;;;78.40;39.25;;;;;;;-144.13;100.00;64086.75;5023550;28;20033;-74
2021/05/04 20:47:01;;;;;;;31.63;14.77;;;;;;;-144.13;100.00;64086.75;5031505;28;20063;-74
2021/05/04 20:50:25;;;;;;;4.60;1.73;;;;;;;-144.13;100.00;64086.75;5034143;28;20638;-74
2021/05/04 20:53:49;;;;;;;2.55;1.30;;;;;;;-144.13;100.00;64086.75;5033231;28;20068;-74
2021/05/04 20:57:14;;;;;;;2.17;1.40;;;;;;;-144.13;100.00;64086.75;5030422;28;20037;-74
2021/05/04 21:00:40;;;;;;;7.25;1.05;;;;;;;-144.13;100.00;64086.75;5034130;28;20025;-74
2021/05/04 21:04:05;;;;;;;2.13;1.17;;;;;;;-144.13;100.00;64086.75;5036543;28;20057;-74
2021/05/04 21:07:29;;;;;;;4.47;1.20;;;;;;;-144.13;100.00;64086.75;5038096;28;20029;-75
2021/05/04 21:11:00;;;;;;;3.53;1.33;;;;;;;-144.13;100.00;64086.75;5017068;28;20036;-76
2021/05/04 21:14:24;;;;;;;10.35;5.05;;;;;;;-144.13;100.00;64086.75;5025374;28;20064;-75
2021/05/04 21:17:58;;;;;;;11.63;6.30;;;;;;;-144.13;100.00;64086.75;5024682;28;21503;-75
2021/05/04 21:21:44;;;;;;;61.50;26.63;;;;;;;-144.13;100.00;64086.75;5044520;28;20021;-76
2021/05/04 21:28:41;;;;;;;5.78;1.80;;;;;;;-144.13;100.00;64086.75;5034885;28;20032;-76
2021/05/04 21:32:05;;;;;;;4.00;1.73;;;;;;;-144.13;100.00;64086.75;5038746;28;20029;-75
2021/05/04 21:35:31;;;;;;;12.80;7.88;;;;;;;-144.13;100.00;64086.75;5025464;28;20494;-76
2021/05/04 21:38:56;;;;;;;57.00;27.33;;;;;;;-144.13;100.00;64086.75;5026824;28;20126;-75
2021/05/04 21:42:20;;;;;;;9.27;4.47;;;;;;;-144.13;100.00;64086.75;5033859;28;20033;-75
2021/05/04 21:45:44;;;;;;;6.60;4.25;;;;;;;-144.13;100.00;64086.75;5036061;28;20044;-74
2021/05/04 21:49:08;;;;;;;2.85;1.35;;;;;;;-144.13;100.00;64086.75;5047137;23;20038;-46
2021/05/04 21:52:34;;;;;;;2.08;1.15;;;;;;;-144.13;100.00;64086.75;4996923;28;20391;-46
2021/05/04 21:55:58;;;;;;;2.20;1.45;;;;;;;-144.13;100.00;64086.75;4992136;28;20030;-47
2021/05/04 21:59:22;;;;;;;3.17;1.35;;;;;;;-144.13;100.00;64086.75;5009967;28;20033;-47
2021/05/04 22:02:48;;;;;;;4.18;1.77;;;;;;;-144.13;100.00;64086.75;5014046;28;20168;-47
2021/05/04 22:06:13;;;;;;;30.95;17.40;;;;;;;-144.13;100.00;64086.75;5011105;28;20031;-46
2021/05/04 22:09:37;;;;;;;23.95;13.20;;;;;;;-144.13;100.00;64086.75;5013121;28;20108;-49
2021/05/04 22:13:23;;;;;;;10.85;5.03;;;;;;;-144.13;100.00;64086.75;5011044;28;20677;-48
2021/05/04 22:20:38;;;;;;;3.42;1.50;;;;;;;-144.13;100.00;64086.75;5011494;28;20038;-47
2021/05/04 22:35:20;;;;;;;27.92;13.15;;;;;;;-144.13;100.00;64086.75;4959687;28;20436;-46
2021/05/04 22:38:46;;;;;;;6.57;2.08;;;;;;;-144.13;100.00;64086.75;5013048;28;20025;-46
2021/05/04 22:42:20;;;;;;;3.17;1.40;;;;;;;-144.13;100.00;64086.75;5014787;28;20021;-49
2021/05/04 23:18:28;;;;;;;5.10;1.10;;;;;;;-144.13;100.00;64086.75;5011944;28;20083;-52
2021/05/04 23:21:54;;;;;;;3.38;1.38;;;;;;;-144.13;100.00;64086.75;5010102;28;20491;-46
2021/05/04 23:25:18;;;;;;;3.28;1.45;;;;;;;-144.13;100.00;64086.75;5009627;28;20025;-47
2021/05/04 23:28:42;;;;;;;3.42;1.30;;;;;;;-144.13;100.00;64086.75;5011116;28;20025;-45
2021/05/04 23:31:31;;;;;;;3.55;1.27;;;;;;;-144.13;100.00;64086.75;5014922;28;20495;-49
2021/05/04 23:34:55;;;;;;;6.07;1.50;;;;;;;-144.13;100.00;64086.75;5012870;28;20026;-52
2021/05/04 23:38:17;;;;;;;3.80;1.38;;;;;;;-144.13;nan;64086.75;5009329;28;20033;-48
2021/05/04 23:41:41;;;;;;;2.67;1.40;;;;;;;-144.13;100.00;64086.75;5013557;28;20032;-47
2021/05/04 23:45:05;;;;;;;3.63;1.60;;;;;;;-144.13;100.00;64086.75;5009402;28;20181;-50
2021/05/04 23:48:29;;;;;;;3.35;1.48;;;;;;;-144.13;100.00;64086.75;5013912;28;20244;-49
2021/05/04 23:51:54;;;;;;;3.08;1.20;;;;;;;-144.13;100.00;64086.75;5013034;28;20029;-53
2021/05/04 23:55:18;;;;;;;2.80;1.15;;;;;;;-144.13;100.00;64086.75;5012490;28;20034;-49
2021/05/04 23:58:42;;;;;;;1.45;1.17;;;;;;;-144.13;100.00;64086.75;5011726;28;20030;-55
